Aviation Digital Data Service (ADDS)

Output produced by METARs form (0158 UTC 16 January 2019)
found at http://www.aviationweather.gov/metar/data/
 
KMAF 152330Z 1600/1624 20007KT P6SM FEW250 
     TEMPO 1608/1612 OVC005
       
KMBG 152320Z 1600/1624 34012KT P6SM OVC015 
     FM162300 10005KT P6SM BKN035
       
KMBS 152337Z 1600/1624 22013KT 4SM BR OVC007 
     FM160300 24010KT 2SM -FZDZ BR OVC004 
     FM160800 28010KT 4SM BR OVC007 
     FM161100 30013KT P6SM BKN020 OVC035 
     FM161400 36013KT P6SM BKN035 
     FM162000 04007KT P6SM SCT035 BKN200
       
KMCB 152323Z 1600/1624 VRB03KT P6SM FEW130 BKN250
       
KMCC 152339Z 1600/1624 07005KT 5SM -RA BR BKN035 OVC050 
     FM160300 15008KT 5SM -RA BR OVC035 
     FM161600 15010KT 6SM -SHRA BR OVC015 
     FM162300 15017G25KT 5SM -RA BR OVC035
       
KMCE 160016Z 1600/1624 11015G19KT 6SM -RA SCT030 BKN050 
     FM160700 12013KT P6SM SCT030 BKN050 
     PROB30 1610/1612 4SM -RA BR OVC050 
     FM161700 14017G24KT 6SM HZ OVC050 
     FM162200 13022G30KT 4SM -RA BR OVC050
       
TAF KMCF 160100Z 1601/1707 34006KT 9999 FEW030 BKN250 QNH3020INS 
     BECMG 1610/1611 35006KT 9999 FEW250 QNH3021INS 
     BECMG 1622/1623 20005KT 9999 SKC QNH3023INS TX13/1621Z TN02/1612Z
       
KMCI 152323Z 1600/1624 22008KT 1SM BR OVC002 
     FM160300 25005KT 1/2SM FZFG OVC002 
     FM160800 VRB05KT 1/2SM FZFG OVC002 
     FM161400 05008KT 2SM BR OVC003 
     FM162000 08005KT 4SM BR OVC003
       
KMCK 152339Z 1600/1624 34006KT P6SM FEW250 
     FM160700 05006KT P6SM BKN060 
     FM161200 09006KT P6SM OVC025 
     FM161500 11006KT P6SM OVC008 
     FM161800 13006KT P6SM VCSH OVC025
       
KMCN 152320Z 1600/1624 VRB03KT P6SM SCT250 
     FM161500 31004KT P6SM FEW250
       
KMCO 152337Z 1600/1706 36007KT P6SM FEW030 SCT300 
     FM161400 36006KT P6SM SCT030 SCT250 
     FM162000 03008KT P6SM FEW040 SCT250
       
KMCW 152337Z 1600/1624 28013KT P6SM OVC008 
     FM160400 33012KT P6SM BKN012 
     FM160900 36009KT P6SM SCT030 
     FM161400 02008KT P6SM SCT012 BKN070 
     FM161700 05006KT P6SM BKN150
       
KMDT 152340Z 1600/1624 VRB03KT P6SM SKC 
     FM160600 23005KT P6SM SCT025 BKN035 
     FM161500 28015G28KT P6SM SCT045
       
KMDW 152338Z 1600/1706 24013G21KT 5SM -FZDZSN BR OVC008 
     FM160400 26010G15KT 3SM -FZDZSN BR OVC006 
     FM160800 30009KT P6SM OVC010 
     FM161200 33009KT P6SM BKN025 
     FM161500 01010KT P6SM SCT025 BKN250 
     FM161800 03009KT P6SM BKN030 
     FM170200 06007KT P6SM BKN040
       
KMEI 152323Z 1600/1624 28003KT P6SM SKC 
     FM161700 23003KT P6SM SKC
       
KMEM 160137Z 1602/1706 21004KT P6SM SCT250 
     FM161500 21006KT P6SM SCT020 
     FM170000 18005KT P6SM BKN025
       
KMER 160016Z 1600/1624 14020G30KT 3SM -RA SCT030 BKN050 
     FM160700 12013KT P6SM SCT030 BKN050 
     PROB30 1610/1612 4SM -RA BR OVC050 
     FM161700 14017G24KT 6SM HZ OVC050 
     FM162200 13022G30KT 4SM -RA BR OVC050
       
KMFE 152337Z 1600/1624 35008KT 3SM -RA BR OVC006 
     FM160700 31006KT 4SM -RA BR OVC004 
     FM161600 32004KT P6SM BKN030
       
KMFR 152334Z 1600/1624 14017G28KT P6SM OVC100 
     FM160300 15014G20KT P6SM OVC070 
     FM160900 14007KT P6SM -SHRA BKN040 OVC060 
     FM161800 14009KT P6SM -RA OVC050 
     FM162200 14016G23KT P6SM OVC050 
     FM162300 14019G26KT P6SM OVC050
       
TAF KMGE 152200Z 1522/1704 30012KT 9999 FEW030 QNH3018INS 
     BECMG 1602/1603 30009KT 9999 SCT020 QNH3022INS 
     BECMG 1614/1615 31012KT 9999 SCT250 QNH3015INS TX13/1621Z TNM01/1612Z
       
KMGM 152337Z 1600/1624 29007KT P6SM BKN250 
     FM160400 00000KT P6SM SCT250 
     FM160900 00000KT 4SM BR SKC 
     FM161500 31005KT P6SM SKC
       
KMGW 160001Z 1600/1624 22005KT P6SM VCSH OVC015 
     FM160700 22007KT P6SM VCSH OVC008 
     FM161000 23007KT 6SM -FZDZSN BR OVC008 
     FM161500 25009KT P6SM -SHSN OVC015
       
KMHK 152337Z 1600/1624 21006KT 5SM BR OVC003 
     FM160100 21005KT 3SM BR OVC002 
     FM160300 VRB04KT 1SM BR OVC002 
     TEMPO 1603/1607 1/4SM FG OVC002 
     FM160700 02004KT 3SM BR OVC005 
     FM161800 07005KT 3SM -FZDZ BR OVC006
       
KMHR 152339Z 1600/1624 10007KT P6SM -RA OVC040 
     FM160300 15010KT 5SM -RA BR OVC035 
     FM161600 15012KT 6SM -SHRA BR OVC015 
     FM162300 15019G27KT 4SM -RA BR OVC035
       
KMHT 152320Z 1600/1624 VRB03KT P6SM FEW035 SCT250 
     FM161700 25010G17KT P6SM SCT250
       
KMIA 152323Z 1600/1706 35008KT P6SM SCT040 
     FM160100 33005KT P6SM FEW035 
     FM161500 34007KT P6SM FEW035 
     FM161900 03008KT P6SM SCT035 
     FM170100 01005KT P6SM FEW030
       
TAF KMIB 160100Z 1601/1707 02009KT 9999 SCT020 QNH3020INS 
     BECMG 1608/1609 12006KT 9999 FEW120 QNH3012INS 
     BECMG 1614/1615 12009KT 9999 BKN030 QNH3008INS 
     BECMG 1617/1618 12009KT 9999 BKN020 QNH3004INS TXM08/1621Z TNM16/1609Z
       
KMIV 152329Z 1600/1624 VRB03KT P6SM SCT250 
     FM161500 27008KT P6SM SCT040 
     FM161700 27008KT P6SM BKN040 
     FM162300 28004KT P6SM SCT040
       
KMKE 160156Z 1602/1706 25009G25KT P6SM OVC009 
     TEMPO 1602/1606 -FZDZ OVC008 
     FM160600 28009KT P6SM OVC011 
     FM160900 32013KT P6SM BKN040 
     FM161400 35010KT P6SM SCT100 
     FM170500 09005KT P6SM BKN060
       
KMKL 152338Z 1600/1624 21003KT P6SM SCT025 
     FM161500 24005KT P6SM SCT025
       
KMKT 152330Z 1600/1624 31016KT P6SM OVC015 
     FM160400 33015KT P6SM OVC020 
     FM161500 02006KT P6SM SKC 
     FM162100 07005KT P6SM SKC
       
KMLB 152337Z 1600/1624 01014KT P6SM SCT028 
     FM161400 36008KT P6SM FEW030 
     FM161800 04010KT P6SM SCT040 SCT250
       
KMLI 160116Z 1601/1624 24009KT P6SM OVC007 
     TEMPO 1601/1603 -DZ 
     FM160900 31008KT P6SM OVC008 
     FM161400 01006KT P6SM OVC025
       
KMLS 152324Z 1600/1624 04010KT P6SM BKN012 
     TEMPO 1600/1603 SCT012 
     FM161100 10009KT P6SM FEW002 
     FM161800 14007KT P6SM SCT200
       
KMLU 152323Z 1600/1624 00000KT P6SM OVC250 
     TEMPO 1604/1608 BKN050 
     FM160800 00000KT P6SM OVC050 
     FM161500 15003KT P6SM OVC040 
     FM162000 16006KT P6SM OVC030
       
KMMH 152324Z 1600/1624 VRB04KT 1/2SM SN OVC005 
     FM160600 22011KT 4SM -SHSN SCT008 OVC020 
     FM161600 14008KT P6SM VCSH SCT020 BKN045
       
TAF KMMT 160000Z 1600/1706 VRB06KT 9999 FEW020 OVC040 620401 QNH3019INS 
     TEMPO 1606/1612 1600 BR BKN015 
     BECMG 1617/1618 26006KT 9999 FEW020 QNH3020INS TX10/1620Z TN04/1611Z
       
KMOB 152320Z 1600/1624 VRB03KT P6SM SCT250
       
KMOD 160141Z 1602/1624 13012KT P6SM -RA OVC050 
     FM160300 14011KT 5SM -RA BR OVC050 
     FM161600 13012KT P6SM VCSH OVC025 
     FM162300 14013G19KT P6SM -RA OVC050
       
KMOT 152323Z 1600/1624 36010KT P6SM FEW250 
     FM160400 VRB04KT P6SM SCT250 
     FM161200 12006KT P6SM BKN060 
     FM161800 12007KT P6SM BKN025
       
KMPV 152337Z 1600/1624 00000KT P6SM BKN025 
     FM160500 VRB04KT P6SM BKN050 
     FM161300 20008KT P6SM BKN060 
     FM161800 23010G18KT P6SM VCSH SCT020 BKN060 
     FM162200 29011G25KT P6SM BKN045
       
KMQY 152323Z 1600/1624 20004KT P6SM OVC020 
     FM160400 21003KT P6SM BKN035 
     FM160800 22004KT P6SM OVC020 
     FM162200 23004KT P6SM BKN250
       
KMRY 160015Z 1600/1624 14020G28KT P6SM VCSH BKN040 OVC050 
     FM160300 19012KT P6SM VCSH BKN040 
     FM161000 13008KT P6SM VCSH BKN025 
     FM162200 17008G15KT P6SM -SHRA OVC025
       
KMRB 152340Z 1600/1624 30009KT P6SM SKC 
     FM160600 27005KT P6SM SCT030 
     FM161200 24006KT P6SM BKN030
       
KMSL 152342Z 1600/1624 VRB03KT P6SM OVC020 
     FM160100 VRB02KT P6SM SCT020 
     FM160200 VRB02KT P6SM SCT250 
     FM161500 25005KT P6SM SCT250
       
KMSO 152339Z 1600/1624 12005KT 6SM -SHSN BR SCT015 SCT120 
     FM160200 15003KT 5SM -SN BR BKN015 OVC030 
     FM161000 12002KT P6SM OVC015 
     FM161500 00000KT 4SM BR BKN015
       
KMSN 152320Z 1600/1624 24011KT P6SM OVC007 
     TEMPO 1600/1604 -FZDZ 
     FM160600 31012KT P6SM OVC012 
     FM160800 33013KT P6SM OVC030 
     FM160900 33008KT P6SM BKN050 
     FM161300 36007KT P6SM SCT100
       
KMSP 152330Z 1600/1706 32014G22KT P6SM OVC016 
     FM160300 32014G22KT P6SM SCT020 
     FM161200 35007KT P6SM SKC 
     FM161600 05007KT P6SM SKC
       
KMSS 152337Z 1600/1624 21005KT P6SM OVC015 
     FM161200 22014KT P6SM VCSH OVC020 
     FM161700 26017KT P6SM VCSH BKN025 
     FM162000 28016KT P6SM BKN060
       
KMSY 152323Z 1600/1706 03003KT P6SM SCT016 BKN250 
     FM160200 VRB03KT P6SM FEW130 SCT250 
     FM161500 VRB05KT P6SM FEW130 SCT250
       
TAF AMD KMTC 160130Z 1601/1707 22012KT 6000 -FZDZ OVC010 690001 620103
QNH2996INS 
     BECMG 1602/1603 23012G18KT 8000 -FZDZ OVC018 660002 620203 QNH2990INS 
     BECMG 1605/1606 24012KT 8000 -FZDZ OVC018 660002 620203 QNH2988INS 
     BECMG 1612/1613 24012KT 9999 NSW OVC018 620202 QNH3000INS 
     BECMG 1614/1615 24010G15KT 9999 OVC020 620202 QNH3006INS 
     BECMG 1620/1621 33009KT 9999 SCT030 QNH3020INS TXM01/1601Z TNM06/1701Z LAST
NO AMDS AFT 1604 NEXT 1609
       
KMTH 160104Z 1601/1624 33010G16KT P6SM FEW030 
     FM160400 36009G15KT P6SM FEW030 
     FM161400 01009KT P6SM SKC
       
KMTJ 152344Z 1600/1624 30003KT P6SM VCSH OVC070 
     FM160500 15005KT 5SM -SHSN BKN030 OVC045 
     FM161400 VRB04KT 3SM -SHSN BR BKN015 OVC035
       
KMTN 152340Z 1600/1624 VRB03KT P6SM BKN250 
     FM160900 24004KT P6SM SCT250 
     FM161700 26008KT P6SM BKN025 AMD NOT SKED 1602/1612
       
KMTW 152335Z 1600/1624 24013G21KT P6SM -FZDZ OVC012 WS020/26035KT 
     FM160100 24013G22KT 4SM -FZDZ BR OVC008 WS020/26035KT 
     FM160400 30014G22KT P6SM BKN018 
     FM160900 33012G19KT P6SM SCT040 
     FM161500 36008KT P6SM SCT250
       
TAF AMD KMUO 152333Z 1523/1624 12015G25KT 9999 FEW065 QNH2995INS 
     BECMG 1601/1602 11009KT 9999 BKN020 OVC060 620207 QNH2999INS 
     BECMG 1609/1610 12010G15KT 6000 -SHSN BKN030 610309 QNH2995INS 
     BECMG 1617/1618 12012KT 6000 -SHRASN SCT030 BKN060 630604 QNH2993INS
TX04/1523Z TNM06/1613Z
       
KMWH 152325Z 1600/1624 36006KT P6SM OVC020 
     TEMPO 1600/1602 SCT020 OVC070 
     FM161800 36005KT P6SM BKN050
       
TAF KMXF 152000Z 1520/1702 33006KT 9999 SCT025 SCT250 QNH3027INS 
     BECMG 1523/1524 34006KT 9999 FEW030 SCT250 QNH3029INS 
     BECMG 1617/1618 31006KT 9999 SKC QNH3025INS TX10/1521Z TN01/1610Z LAST NO
AMDS AFT 1604 NEXT 1612
       
KMYL 152343Z 1600/1624 VRB03KT P6SM OVC025 
     FM160200 VRB03KT 1/2SM FZFG VV002 
     FM161600 VRB03KT 1SM -SN BR OVC005 
     FM162100 17008KT P6SM VCSH BKN009 OVC020
       
KMYR 152320Z 1600/1624 35003KT P6SM OVC050 
     FM160600 00000KT P6SM SKC 
     FM161200 28005KT P6SM SKC